Time;durP1;ratioP1;P1;durP2;ratioP2;P2;SDS_P1;SDS_P2;PMS_P1;PMS_P2;Temp;Humidity;BMP_temperature;BMP_pressure;BME280_temperature;BME280_humidity;BME280_pressure;Samples;Min_cycle;Max_cycle;Signal;HPM_P1;HPM_P2
2023/03/13 00:00:48;;;;;;;28.17;7.40;;;9.20;99.90;;;;;;4996112;28;20034;-85
2023/03/13 00:03:14;;;;;;;31.92;6.30;;;9.20;99.90;;;;;;4978547;28;20153;-85
2023/03/13 00:05:40;;;;;;;25.38;6.93;;;9.20;99.90;;;;;;4985871;28;20038;-85
2023/03/13 00:08:06;;;;;;;34.22;6.32;;;9.20;99.90;;;;;;4979321;28;20038;-85
2023/03/13 00:10:31;;;;;;;34.75;7.05;;;9.20;99.90;;;;;;4977046;28;20044;-85
2023/03/13 00:12:57;;;;;;;26.70;6.47;;;9.20;99.90;;;;;;4981131;28;20030;-85
2023/03/13 00:15:25;;;;;;;27.33;6.85;;;9.20;99.90;;;;;;5019832;28;20038;-85
2023/03/13 00:17:51;;;;;;;42.03;8.00;;;9.20;99.90;;;;;;5005497;28;20064;-85
2023/03/13 00:20:17;;;;;;;30.90;7.15;;;9.10;99.90;;;;;;4980159;28;20643;-84
2023/03/13 00:22:42;;;;;;;30.27;7.18;;;9.10;99.90;;;;;;4995672;28;20042;-85
2023/03/13 00:25:08;;;;;;;33.88;7.32;;;9.20;99.90;;;;;;4992486;28;20057;-85
2023/03/13 00:27:34;;;;;;;40.20;7.30;;;9.10;99.90;;;;;;4978339;28;20042;-84
2023/03/13 00:30:04;;;;;;;38.47;7.53;;;9.20;99.90;;;;;;4992506;28;20038;-85
2023/03/13 00:32:29;;;;;;;26.60;5.85;;;9.20;99.90;;;;;;4974734;28;20096;-85
2023/03/13 00:34:55;;;;;;;31.80;6.90;;;9.10;99.90;;;;;;4978203;28;20809;-84
2023/03/13 00:37:21;;;;;;;35.80;7.38;;;9.10;99.90;;;;;;4993464;28;20111;-85
2023/03/13 00:39:46;;;;;;;40.40;7.45;;;9.20;99.90;;;;;;4990751;28;20042;-84
2023/03/13 00:42:12;;;;;;;32.40;6.90;;;9.10;99.90;;;;;;4978852;28;20120;-85
2023/03/13 00:44:38;;;;;;;31.63;6.97;;;9.10;99.90;;;;;;4979114;28;20042;-85
2023/03/13 00:47:04;;;;;;;40.97;7.50;;;9.10;99.90;;;;;;4973054;28;20121;-84
2023/03/13 00:49:30;;;;;;;40.78;8.00;;;9.10;99.90;;;;;;5008397;28;20239;-84
2023/03/13 00:51:56;;;;;;;28.15;7.18;;;9.20;99.90;;;;;;4981720;28;20101;-84
2023/03/13 00:54:21;;;;;;;32.25;7.88;;;9.20;99.90;;;;;;4979880;28;20192;-84
2023/03/13 00:56:47;;;;;;;35.42;7.80;;;9.20;99.90;;;;;;4993080;28;20388;-84
2023/03/13 00:59:13;;;;;;;32.92;6.78;;;9.20;99.90;;;;;;4980422;28;20034;-84
2023/03/13 01:01:48;;;;;;;31.98;8.27;;;9.20;99.90;;;;;;4995573;28;20128;-85
2023/03/13 01:04:14;;;;;;;;;;;9.20;99.90;;;;;;4975807;28;20113;-84
2023/03/13 01:06:41;;;;;;;33.38;7.07;;;9.10;99.90;;;;;;4980077;28;19921;-84
2023/03/13 01:09:10;;;;;;;31.77;7.10;;;9.10;99.90;;;;;;5016058;28;20044;-85
2023/03/13 01:11:38;;;;;;;29.48;7.30;;;9.20;99.90;;;;;;4976683;28;20488;-84
2023/03/13 01:14:07;;;;;;;39.22;7.63;;;9.30;99.90;;;;;;4993659;28;20342;-85
2023/03/13 01:16:34;;;;;;;32.92;7.32;;;9.20;99.90;;;;;;4979799;28;20066;-85
2023/03/13 01:19:03;;;;;;;38.13;7.45;;;9.20;99.90;;;;;;4992556;28;20508;-84
2023/03/13 01:21:29;;;;;;;29.88;7.30;;;9.20;99.90;;;;;;4978832;28;20046;-85
2023/03/13 01:23:55;;;;;;;26.58;6.57;;;9.20;99.90;;;;;;4993931;28;20781;-84
2023/03/13 01:26:25;;;;;;;31.50;7.60;;;9.30;99.90;;;;;;4995860;28;20038;-85
2023/03/13 01:28:54;;;;;;;31.05;7.63;;;9.30;99.90;;;;;;5007279;28;20507;-84
2023/03/13 01:31:26;;;;;;;28.95;6.43;;;9.20;99.90;;;;;;4982994;28;20057;-85
2023/03/13 01:34:01;;;;;;;38.20;7.07;;;9.30;99.90;;;;;;4998408;28;20070;-85
2023/03/13 01:36:27;;;;;;;33.72;6.80;;;9.30;99.90;;;;;;4980740;28;20490;-85
2023/03/13 01:38:55;;;;;;;34.25;8.27;;;9.30;99.90;;;;;;4995693;28;20069;-85
2023/03/13 01:41:23;;;;;;;36.70;7.10;;;9.30;99.90;;;;;;4999136;28;21154;-84
2023/03/13 01:43:49;;;;;;;33.85;7.00;;;9.40;99.90;;;;;;4996864;28;20573;-84
2023/03/13 01:46:20;;;;;;;25.98;6.05;;;9.20;99.90;;;;;;4996100;28;20088;-85
2023/03/13 01:49:13;;;;;;;25.20;7.30;;;9.30;99.90;;;;;;4995604;28;20025;-84
2023/03/13 01:52:03;;;;;;;29.92;6.22;;;9.30;99.90;;;;;;4980745;28;20049;-84
2023/03/13 01:54:42;;;;;;;28.77;5.97;;;9.30;99.90;;;;;;5002528;28;20504;-84
2023/03/13 01:57:36;;;;;;;30.42;6.72;;;9.40;99.90;;;;;;4981505;28;20046;-85
2023/03/13 02:00:15;;;;;;;23.15;6.47;;;9.40;99.90;;;;;;4997547;28;20511;-85
2023/03/13 02:02:50;;;;;;;28.02;6.70;;;9.40;99.90;;;;;;4991659;28;20072;-84
2023/03/13 02:05:20;;;;;;;27.38;6.53;;;9.50;99.90;;;;;;4978690;28;20041;-85
2023/03/13 02:08:12;;;;;;;27.88;6.30;;;9.40;99.90;;;;;;4978742;28;20060;-85
2023/03/13 02:10:52;;;;;;;30.77;7.20;;;9.40;99.90;;;;;;5004881;28;20783;-84
2023/03/13 02:13:19;;;;;;;31.52;7.03;;;9.50;99.90;;;;;;5009551;28;20038;-85
2023/03/13 02:15:46;;;;;;;33.20;8.02;;;9.50;99.90;;;;;;4979616;28;20924;-84
2023/03/13 02:18:12;;;;;;;32.53;8.10;;;9.50;99.90;;;;;;4980683;28;20510;-84
2023/03/13 02:20:39;;;;;;;29.08;6.50;;;9.40;99.90;;;;;;4983174;28;20072;-84
2023/03/13 02:23:20;;;;;;;34.35;7.07;;;9.40;99.90;;;;;;4995079;28;20108;-85
2023/03/13 02:25:47;;;;;;;26.40;7.20;;;9.40;99.90;;;;;;4983015;28;20507;-84
2023/03/13 02:28:26;;;;;;;27.75;7.20;;;9.40;99.90;;;;;;4995335;28;20056;-85
2023/03/13 02:30:55;;;;;;;29.08;7.22;;;9.50;99.90;;;;;;4980366;28;20065;-85
2023/03/13 02:33:24;;;;;;;26.98;7.07;;;9.50;99.90;;;;;;4993901;28;20109;-85
2023/03/13 02:35:51;;;;;;;26.27;7.03;;;9.50;99.90;;;;;;4993890;28;20539;-84
2023/03/13 02:38:22;;;;;;;28.27;6.60;;;9.50;99.90;;;;;;5021964;28;20112;-84
2023/03/13 02:40:50;;;;;;;21.63;6.57;;;9.50;99.90;;;;;;5002249;28;20485;-85
2023/03/13 02:43:23;;;;;;;24.20;6.80;;;9.60;99.90;;;;;;5002960;28;20045;-85
2023/03/13 02:46:12;;;;;;;27.83;7.13;;;9.60;99.90;;;;;;5004716;28;20053;-85
2023/03/13 02:48:41;;;;;;;20.33;6.28;;;9.70;99.90;;;;;;4992224;28;20044;-85
2023/03/13 02:51:33;;;;;;;19.05;6.40;;;9.60;99.90;;;;;;4995301;28;20042;-85
2023/03/13 02:54:08;;;;;;;20.95;6.00;;;9.70;99.90;;;;;;4969637;28;20050;-84
2023/03/13 02:56:36;;;;;;;14.07;5.68;;;9.70;99.90;;;;;;4995210;28;20045;-85
2023/03/13 02:59:06;;;;;;;15.43;6.18;;;9.80;99.90;;;;;;4981545;28;20046;-85
2023/03/13 03:01:32;;;;;;;17.35;6.25;;;9.80;99.90;;;;;;4996291;28;20060;-84
2023/03/13 03:03:58;;;;;;;16.83;5.70;;;9.80;99.90;;;;;;4994876;28;20034;-85
2023/03/13 03:06:24;;;;;;;10.77;5.40;;;9.80;99.90;;;;;;4994965;28;20065;-85
2023/03/13 03:08:49;;;;;;;15.93;5.63;;;9.80;99.90;;;;;;4996473;28;20116;-85
2023/03/13 03:11:15;;;;;;;13.63;4.95;;;9.90;99.90;;;;;;4982229;28;20037;-85
2023/03/13 03:13:41;;;;;;;13.20;5.18;;;9.90;99.90;;;;;;4981113;28;20037;-85
2023/03/13 03:16:14;;;;;;;16.98;5.00;;;10.00;99.90;;;;;;5009430;28;20526;-85
2023/03/13 03:18:40;;;;;;;12.82;5.25;;;10.00;99.90;;;;;;4995084;28;20044;-85
2023/03/13 03:21:06;;;;;;;11.80;4.93;;;10.00;99.90;;;;;;4981133;28;20033;-85
2023/03/13 03:23:35;;;;;;;10.25;4.80;;;10.00;99.90;;;;;;4994297;28;20045;-84
2023/03/13 03:26:01;;;;;;;14.05;5.30;;;10.10;99.90;;;;;;4994245;28;20053;-84
2023/03/13 03:28:27;;;;;;;10.27;4.78;;;10.10;99.90;;;;;;4979339;28;20038;-85
2023/03/13 03:30:53;;;;;;;10.88;4.68;;;10.10;99.90;;;;;;4991696;28;20478;-85
2023/03/13 03:33:20;;;;;;;8.73;4.28;;;10.20;99.90;;;;;;4992255;28;20096;-84
2023/03/13 03:35:46;;;;;;;8.32;4.47;;;10.20;99.90;;;;;;4980307;28;20133;-85
2023/03/13 03:38:12;;;;;;;10.23;4.63;;;10.20;99.90;;;;;;4995391;28;20049;-85
2023/03/13 03:40:38;;;;;;;15.50;4.47;;;10.30;99.90;;;;;;4981492;28;20052;-84
2023/03/13 03:43:03;;;;;;;13.20;4.90;;;10.30;99.90;;;;;;4996252;28;20033;-86
2023/03/13 03:45:29;;;;;;;11.15;4.80;;;10.30;99.90;;;;;;4980914;28;20097;-85
2023/03/13 03:47:58;;;;;;;12.55;4.82;;;10.40;99.90;;;;;;4980123;28;20145;-85
2023/03/13 03:50:24;;;;;;;8.75;4.43;;;10.40;99.90;;;;;;4995680;28;20030;-85
2023/03/13 03:52:50;;;;;;;6.25;4.07;;;10.40;99.90;;;;;;5026446;28;20073;-84
2023/03/13 03:55:16;;;;;;;8.80;4.28;;;10.50;99.90;;;;;;4982221;28;20116;-85
2023/03/13 03:57:42;;;;;;;10.52;4.80;;;10.50;99.90;;;;;;4994733;28;20038;-85
2023/03/13 04:00:10;;;;;;;7.78;4.30;;;10.50;99.90;;;;;;4981214;28;20041;-85
2023/03/13 04:02:36;;;;;;;8.50;4.60;;;10.60;99.90;;;;;;4972948;28;20034;-85
2023/03/13 04:05:03;;;;;;;7.15;4.38;;;10.60;99.90;;;;;;4990348;28;20032;-84
2023/03/13 04:07:28;;;;;;;7.68;4.50;;;10.70;99.90;;;;;;4979923;28;20327;-85
2023/03/13 04:09:54;;;;;;;8.65;4.20;;;10.70;99.90;;;;;;4980594;28;20116;-86
2023/03/13 04:12:19;;;;;;;5.93;4.07;;;10.70;99.90;;;;;;4979577;28;20042;-85
2023/03/13 04:14:45;;;;;;;9.25;4.43;;;10.70;99.90;;;;;;4994763;28;20143;-84
2023/03/13 04:17:14;;;;;;;7.80;4.28;;;10.80;99.90;;;;;;4978742;28;20498;-85
2023/03/13 04:19:40;;;;;;;7.22;4.13;;;10.90;99.90;;;;;;4991359;28;20491;-85
2023/03/13 04:22:06;;;;;;;10.07;4.85;;;11.00;99.90;;;;;;4979401;28;20041;-84
2023/03/13 04:24:32;;;;;;;9.98;4.88;;;11.00;99.90;;;;;;4978229;28;20056;-85
2023/03/13 04:26:57;;;;;;;7.68;4.80;;;11.10;99.90;;;;;;4995480;28;20374;-85
2023/03/13 04:29:23;;;;;;;7.80;5.20;;;11.20;99.90;;;;;;4992156;28;20253;-84
2023/03/13 04:31:49;;;;;;;9.10;5.43;;;11.30;99.90;;;;;;4975503;28;20125;-85
2023/03/13 04:34:18;;;;;;;8.18;5.50;;;11.50;99.90;;;;;;4992308;28;20094;-85
2023/03/13 04:36:44;;;;;;;7.28;5.20;;;11.40;99.90;;;;;;4980866;28;20477;-85
2023/03/13 04:39:09;;;;;;;6.38;5.35;;;11.50;99.90;;;;;;4995983;28;20033;-84
2023/03/13 04:41:35;;;;;;;9.55;5.97;;;11.60;99.90;;;;;;4994087;28;20038;-85
2023/03/13 04:44:01;;;;;;;7.47;5.57;;;11.70;99.90;;;;;;4979217;28;20123;-84
2023/03/13 04:46:26;;;;;;;7.93;5.50;;;11.70;99.90;;;;;;4979695;28;20049;-85
2023/03/13 04:48:52;;;;;;;9.68;6.38;;;11.70;99.90;;;;;;4979050;28;20971;-85
2023/03/13 04:51:18;;;;;;;9.73;6.53;;;11.70;99.90;;;;;;4976544;28;20050;-85
2023/03/13 04:53:43;;;;;;;10.38;7.10;;;11.80;99.90;;;;;;4976597;28;20096;-85
2023/03/13 04:56:20;;;;;;;10.35;6.78;;;12.00;99.90;;;;;;4981077;28;20480;-85
2023/03/13 04:58:46;;;;;;;11.63;7.07;;;11.90;99.90;;;;;;4982543;28;20706;-84
2023/03/13 05:01:12;;;;;;;9.90;6.47;;;12.00;99.90;;;;;;4998931;28;20033;-85
2023/03/13 05:03:37;;;;;;;10.88;6.75;;;12.00;99.90;;;;;;4979590;28;20541;-85
2023/03/13 05:06:03;;;;;;;8.38;6.35;;;12.10;99.90;;;;;;4983172;28;20510;-85
2023/03/13 05:08:29;;;;;;;10.10;6.57;;;12.10;99.90;;;;;;4979853;28;20343;-85
2023/03/13 05:10:54;;;;;;;14.80;6.78;;;12.20;99.90;;;;;;4983564;28;20033;-85
2023/03/13 05:13:20;;;;;;;11.75;6.45;;;12.10;99.90;;;;;;4997144;28;20107;-85
2023/03/13 05:15:46;;;;;;;9.05;6.45;;;12.10;99.90;;;;;;4998272;28;20046;-85
2023/03/13 05:18:11;;;;;;;10.40;6.43;;;12.20;99.90;;;;;;4980645;28;20046;-85
2023/03/13 05:20:40;;;;;;;9.68;6.70;;;12.20;99.90;;;;;;4997496;28;20114;-85
2023/03/13 05:23:05;;;;;;;13.60;8.05;;;12.30;99.90;;;;;;4980441;28;20049;-85
2023/03/13 05:25:34;;;;;;;14.68;7.50;;;12.50;99.90;;;;;;4979226;28;20096;-86
2023/03/13 05:28:00;;;;;;;10.50;7.13;;;12.50;99.90;;;;;;5010167;28;20495;-86
2023/03/13 05:30:26;;;;;;;14.48;7.93;;;12.50;99.90;;;;;;4978510;28;20103;-85
2023/03/13 05:32:51;;;;;;;14.20;7.93;;;12.60;99.90;;;;;;4978453;28;20407;-85
2023/03/13 05:35:17;;;;;;;12.10;8.13;;;12.50;99.90;;;;;;5007653;28;20568;-85
2023/03/13 05:37:46;;;;;;;10.05;7.20;;;12.60;99.90;;;;;;4982572;28;20041;-85
2023/03/13 05:40:15;;;;;;;12.40;7.63;;;12.70;99.90;;;;;;4998555;28;20694;-85
2023/03/13 05:42:59;;;;;;;8.38;5.97;;;12.60;99.90;;;;;;4996244;28;20077;-86
2023/03/13 05:45:24;;;;;;;9.02;5.07;;;12.70;99.90;;;;;;4982099;28;20030;-86
2023/03/13 05:47:50;;;;;;;10.05;6.13;;;12.80;99.90;;;;;;4976370;28;20061;-86
2023/03/13 05:50:16;;;;;;;8.23;5.50;;;12.80;99.90;;;;;;4995504;28;20475;-85
2023/03/13 05:52:42;;;;;;;12.38;5.22;;;12.80;99.90;;;;;;4983006;28;20176;-85
2023/03/13 05:55:08;;;;;;;10.00;4.60;;;12.80;99.90;;;;;;5003715;28;20423;-85
2023/03/13 05:57:34;;;;;;;8.13;5.18;;;12.80;99.90;;;;;;4980592;28;20041;-86
2023/03/13 05:59:59;;;;;;;8.65;5.10;;;12.80;99.90;;;;;;4984234;28;20029;-85
2023/03/13 06:02:25;;;;;;;12.88;5.47;;;12.80;99.90;;;;;;4981594;28;20277;-84
2023/03/13 06:04:51;;;;;;;8.15;4.93;;;12.80;99.90;;;;;;4983028;28;20053;-85
2023/03/13 06:07:16;;;;;;;7.78;5.10;;;12.70;99.90;;;;;;5024316;28;20042;-84
2023/03/13 06:09:42;;;;;;;10.45;4.95;;;12.80;99.90;;;;;;4984239;28;20041;-85
2023/03/13 06:12:10;;;;;;;11.75;5.80;;;12.70;99.90;;;;;;4985505;28;20036;-85
2023/03/13 06:14:36;;;;;;;8.70;5.13;;;12.60;99.90;;;;;;4982750;28;20124;-85
2023/03/13 06:17:03;;;;;;;13.07;5.75;;;12.80;99.90;;;;;;4981624;28;20061;-85
2023/03/13 06:19:29;;;;;;;7.78;5.28;;;12.70;99.90;;;;;;5003928;28;20452;-85
2023/03/13 06:21:54;;;;;;;12.10;5.68;;;12.80;99.90;;;;;;4982804;28;20069;-85
2023/03/13 06:24:20;;;;;;;10.93;5.30;;;12.80;99.90;;;;;;4997200;28;20114;-85
2023/03/13 06:26:50;;;;;;;9.18;5.45;;;12.80;99.90;;;;;;4980323;28;20454;-86
2023/03/13 06:29:18;;;;;;;9.93;5.57;;;12.70;99.90;;;;;;5001240;28;20053;-85
2023/03/13 06:31:44;;;;;;;11.05;5.82;;;12.80;99.90;;;;;;4983885;28;20041;-85
2023/03/13 06:34:11;;;;;;;10.73;6.18;;;12.80;99.90;;;;;;4996181;28;20065;-85
2023/03/13 06:36:37;;;;;;;10.65;5.72;;;12.80;99.90;;;;;;4982027;28;20574;-84
2023/03/13 06:39:06;;;;;;;10.93;6.18;;;12.70;99.90;;;;;;4981946;28;20257;-85
2023/03/13 06:41:32;;;;;;;13.05;5.28;;;12.80;99.90;;;;;;4978535;28;20551;-85
2023/03/13 06:43:58;;;;;;;10.02;5.13;;;12.70;99.90;;;;;;4977594;28;20125;-84
2023/03/13 06:46:24;;;;;;;13.48;5.45;;;12.70;99.90;;;;;;4997750;28;20495;-85
2023/03/13 06:48:51;;;;;;;12.10;5.38;;;12.80;99.90;;;;;;4979079;28;20038;-85
2023/03/13 06:51:19;;;;;;;11.93;5.38;;;12.70;99.90;;;;;;4982929;28;20034;-85
2023/03/13 06:53:47;;;;;;;7.38;4.80;;;12.60;99.90;;;;;;4996917;28;20037;-85
2023/03/13 06:56:13;;;;;;;13.93;5.32;;;12.60;99.90;;;;;;4982079;28;20407;-85
2023/03/13 06:58:39;;;;;;;15.00;5.68;;;12.70;99.90;;;;;;4996202;28;20038;-85
2023/03/13 07:01:09;;;;;;;10.15;5.90;;;12.70;99.90;;;;;;4980980;28;20069;-85
2023/03/13 07:03:40;;;;;;;12.25;5.70;;;12.60;99.90;;;;;;4980029;28;20088;-85
2023/03/13 07:06:07;;;;;;;11.40;6.00;;;12.60;99.90;;;;;;4982291;28;20157;-85
2023/03/13 07:08:34;;;;;;;13.35;5.97;;;12.60;99.90;;;;;;4979157;28;20371;-84
2023/03/13 07:11:02;;;;;;;13.40;5.57;;;12.60;99.90;;;;;;4994143;28;20158;-86
2023/03/13 07:13:28;;;;;;;12.30;5.32;;;12.60;99.90;;;;;;4980645;28;20248;-85
2023/03/13 07:15:54;;;;;;;14.25;5.72;;;12.60;99.90;;;;;;4980604;28;20042;-85
2023/03/13 07:18:21;;;;;;;12.13;5.78;;;12.60;99.90;;;;;;5000971;28;20030;-85
2023/03/13 07:20:57;;;;;;;14.10;5.82;;;12.50;99.90;;;;;;4979000;28;20030;-85
2023/03/13 07:23:24;;;;;;;20.25;6.07;;;12.60;99.90;;;;;;4998459;28;20407;-85
2023/03/13 07:25:54;;;;;;;10.10;5.43;;;12.50;99.90;;;;;;4993656;28;20058;-85
2023/03/13 07:28:20;;;;;;;13.73;5.30;;;12.50;99.90;;;;;;4980504;28;20582;-84
2023/03/13 07:30:46;;;;;;;11.65;4.70;;;12.50;99.90;;;;;;4980827;28;20030;-85
2023/03/13 07:33:11;;;;;;;10.98;5.10;;;12.50;99.90;;;;;;4978864;28;20045;-84
2023/03/13 07:35:37;;;;;;;13.07;5.47;;;12.60;99.90;;;;;;4981261;28;20479;-85
2023/03/13 07:38:03;;;;;;;13.20;5.00;;;12.60;99.90;;;;;;4979951;28;20108;-85
2023/03/13 07:40:28;;;;;;;15.50;5.55;;;12.60;99.90;;;;;;4994312;28;20067;-85
2023/03/13 07:42:54;;;;;;;11.13;4.93;;;12.70;99.90;;;;;;4982390;28;20068;-84
2023/03/13 07:45:20;;;;;;;9.40;4.80;;;12.50;99.90;;;;;;4979345;28;20060;-86
2023/03/13 07:47:46;;;;;;;9.63;4.50;;;12.60;99.90;;;;;;4978446;28;20045;-85
2023/03/13 07:50:11;;;;;;;12.80;5.00;;;12.60;99.90;;;;;;4982786;28;20033;-85
2023/03/13 07:52:37;;;;;;;10.45;4.63;;;12.70;99.90;;;;;;5020243;28;20113;-85
2023/03/13 07:55:06;;;;;;;9.20;5.10;;;12.60;99.90;;;;;;4981707;28;20441;-85
2023/03/13 07:57:32;;;;;;;9.25;4.20;;;12.50;99.90;;;;;;4979113;28;20038;-85
2023/03/13 07:59:57;;;;;;;8.88;4.53;;;12.60;99.90;;;;;;4979361;28;20530;-85
2023/03/13 08:02:23;;;;;;;11.95;4.90;;;12.60;99.90;;;;;;4993083;28;20038;-84
2023/03/13 08:04:52;;;;;;;8.57;3.20;;;12.70;99.90;;;;;;4978803;28;20064;-86
2023/03/13 08:07:17;;;;;;;8.85;4.43;;;12.70;99.90;;;;;;4978661;28;20042;-85
2023/03/13 08:09:46;;;;;;;8.65;4.07;;;12.70;99.90;;;;;;4979861;28;20049;-85
2023/03/13 08:12:12;;;;;;;7.65;3.90;;;12.60;99.90;;;;;;4995604;28;20230;-85
2023/03/13 08:14:37;;;;;;;5.28;3.38;;;12.60;99.90;;;;;;4980672;28;20095;-86
2023/03/13 08:17:03;;;;;;;6.68;3.50;;;12.70;99.90;;;;;;4978944;28;20492;-85
2023/03/13 08:19:29;;;;;;;4.45;3.10;;;12.70;99.90;;;;;;5006869;28;20030;-85
2023/03/13 08:21:55;;;;;;;7.07;3.40;;;12.80;99.90;;;;;;4978524;28;20084;-85
2023/03/13 08:24:20;;;;;;;3.80;2.55;;;12.70;99.90;;;;;;4979932;28;20081;-85
2023/03/13 08:26:46;;;;;;;5.82;2.63;;;12.70;99.90;;;;;;4980080;28;20188;-85
2023/03/13 08:29:14;;;;;;;6.18;2.55;;;12.80;99.90;;;;;;4992269;28;20037;-85
2023/03/13 08:31:50;;;;;;;3.92;2.35;;;12.80;99.90;;;;;;4980064;28;20045;-84
2023/03/13 08:34:17;;;;;;;8.30;2.33;;;12.80;99.90;;;;;;5000499;28;20054;-85
2023/03/13 08:36:43;;;;;;;5.40;2.10;;;12.90;99.90;;;;;;4979659;28;20056;-85
2023/03/13 08:39:12;;;;;;;6.15;2.30;;;13.00;99.90;;;;;;4980690;28;20116;-85
2023/03/13 08:41:40;;;;;;;3.63;2.03;;;13.10;99.90;;;;;;4979615;28;20598;-85
2023/03/13 08:44:09;;;;;;;5.43;2.15;;;13.10;99.90;;;;;;4979080;28;20403;-85
2023/03/13 08:46:36;;;;;;;6.22;1.92;;;13.10;99.90;;;;;;4996700;28;20210;-85
2023/03/13 08:49:03;;;;;;;3.53;1.95;;;13.10;99.90;;;;;;4976104;28;20125;-86
2023/03/13 08:51:29;;;;;;;4.88;2.03;;;13.10;99.90;;;;;;4981622;28;20124;-86
2023/03/13 08:53:55;;;;;;;4.80;1.50;;;13.20;99.90;;;;;;4979032;28;20112;-86
2023/03/13 08:56:27;;;;;;;2.70;1.35;;;13.40;99.90;;;;;;4977892;28;20200;-85
2023/03/13 08:58:55;;;;;;;4.00;1.65;;;13.40;99.90;;;;;;4994416;28;20514;-86
2023/03/13 09:01:23;;;;;;;4.90;1.48;;;13.50;99.90;;;;;;4978244;28;20117;-86
2023/03/13 09:03:49;;;;;;;3.42;1.60;;;13.50;99.90;;;;;;4992198;28;20411;-86
2023/03/13 09:06:18;;;;;;;4.32;1.85;;;13.60;99.90;;;;;;4979640;28;20046;-86
2023/03/13 09:08:44;;;;;;;2.85;1.33;;;13.50;99.90;;;;;;4995086;28;20075;-86
2023/03/13 09:11:13;;;;;;;5.30;1.80;;;13.50;99.90;;;;;;4981502;28;20125;-86
2023/03/13 09:13:41;;;;;;;5.32;2.08;;;13.40;99.90;;;;;;4978285;28;20095;-86
2023/03/13 09:16:13;;;;;;;4.40;2.15;;;13.40;99.90;;;;;;4980005;28;20049;-86
2023/03/13 09:18:39;;;;;;;6.15;2.22;;;13.30;99.90;;;;;;4976731;28;20057;-86
2023/03/13 09:21:07;;;;;;;5.20;2.53;;;13.30;99.90;;;;;;4978933;28;20065;-87
2023/03/13 09:23:33;;;;;;;4.68;1.92;;;13.10;99.90;;;;;;4994534;28;20448;-86
2023/03/13 09:26:02;;;;;;;7.95;2.10;;;13.00;99.90;;;;;;4979597;28;20107;-86
2023/03/13 09:28:28;;;;;;;10.88;2.55;;;13.10;99.90;;;;;;5000431;28;20026;-85
2023/03/13 09:30:53;;;;;;;9.55;2.70;;;13.10;99.90;;;;;;4979973;28;20030;-86
2023/03/13 09:33:22;;;;;;;10.13;2.53;;;13.10;99.90;;;;;;4990914;28;20042;-86
2023/03/13 09:35:51;;;;;;;8.73;2.47;;;12.90;99.90;;;;;;4977531;28;20062;-86
2023/03/13 09:38:18;;;;;;;7.43;2.67;;;12.90;99.90;;;;;;4977116;28;20132;-86
2023/03/13 09:40:49;;;;;;;6.93;2.38;;;12.90;99.90;;;;;;4980486;28;20050;-85
2023/03/13 09:43:33;;;;;;;11.75;2.83;;;12.90;99.90;;;;;;4993059;28;20034;-85
2023/03/13 09:46:03;;;;;;;7.18;2.50;;;12.90;99.90;;;;;;5010561;28;20103;-86
2023/03/13 09:48:33;;;;;;;6.05;2.28;;;12.90;99.90;;;;;;4998430;28;20033;-85
2023/03/13 09:51:03;;;;;;;6.05;2.33;;;12.90;99.90;;;;;;4997041;28;20045;-86
2023/03/13 09:53:57;;;;;;;7.47;2.95;;;12.90;99.90;;;;;;5022252;28;20534;-85
2023/03/13 09:56:28;;;;;;;5.78;2.75;;;13.10;99.90;;;;;;4996163;28;20568;-85
2023/03/13 09:59:16;;;;;;;9.07;3.25;;;13.20;99.90;;;;;;4984869;28;20037;-85
2023/03/13 10:01:52;;;;;;;8.23;2.85;;;13.40;99.90;;;;;;4986058;28;20070;-85
2023/03/13 10:04:38;;;;;;;11.55;2.70;;;13.50;99.90;;;;;;4999887;28;20701;-86
2023/03/13 10:07:11;;;;;;;10.73;2.88;;;13.70;99.90;;;;;;5011765;28;20170;-85
2023/03/13 10:09:39;;;;;;;10.63;3.35;;;13.80;99.90;;;;;;5004424;28;20103;-86
2023/03/13 10:12:08;;;;;;;9.50;2.95;;;13.90;99.90;;;;;;4982223;28;20402;-85
2023/03/13 10:14:42;;;;;;;11.38;3.17;;;13.80;99.90;;;;;;4984591;28;20041;-85
2023/03/13 10:17:37;;;;;;;9.40;2.83;;;13.90;99.90;;;;;;4996371;28;20048;-85
2023/03/13 10:20:26;;;;;;;10.35;2.92;;;14.00;99.90;;;;;;5004746;28;20415;-86
2023/03/13 10:23:14;;;;;;;9.02;2.50;;;14.30;99.90;;;;;;5014481;28;20201;-86
2023/03/13 10:25:40;;;;;;;10.65;2.78;;;14.10;99.90;;;;;;4982773;28;20522;-87
2023/03/13 10:28:11;;;;;;;9.98;3.20;;;14.20;99.90;;;;;;4999256;28;20246;-86
2023/03/13 10:31:06;;;;;;;8.75;2.60;;;14.20;99.90;;;;;;4984377;28;20045;-90
2023/03/13 10:33:35;;;;;;;12.32;3.35;;;14.10;99.90;;;;;;4992869;28;20049;-91
2023/03/13 10:36:10;;;;;;;12.85;2.70;;;14.30;99.90;;;;;;4997767;28;20073;-90
2023/03/13 10:38:45;;;;;;;;;;;14.20;99.90;;;;;;4983356;28;20072;-90
2023/03/13 10:41:37;;;;;;;10.40;2.80;;;14.10;99.90;;;;;;4984560;28;19925;-91
2023/03/13 10:44:15;;;;;;;13.85;3.10;;;14.20;99.90;;;;;;4983582;28;20069;-90
2023/03/13 10:46:43;;;;;;;9.13;2.40;;;14.20;99.90;;;;;;4983924;28;20304;-90
2023/03/13 10:49:19;;;;;;;11.80;2.63;;;14.20;99.90;;;;;;4996091;28;20053;-90
2023/03/13 10:51:48;;;;;;;12.57;2.88;;;14.20;99.90;;;;;;4998147;28;20366;-90
2023/03/13 10:54:27;;;;;;;11.80;3.50;;;14.20;99.90;;;;;;5000018;28;20092;-90
2023/03/13 10:57:25;;;;;;;9.27;3.10;;;14.20;99.90;;;;;;4998972;28;20093;-90
2023/03/13 10:59:52;;;;;;;10.32;2.80;;;14.20;99.90;;;;;;4984705;28;20350;-90
2023/03/13 11:02:34;;;;;;;13.23;3.15;;;14.20;99.90;;;;;;4999340;28;20338;-89
2023/03/13 11:05:00;;;;;;;10.80;2.80;;;14.10;99.90;;;;;;4983110;28;20064;-90
2023/03/13 11:07:31;;;;;;;14.00;2.92;;;14.10;99.90;;;;;;4999167;28;20068;-90
2023/03/13 11:10:03;;;;;;;13.52;2.97;;;14.00;99.90;;;;;;4999869;28;20042;-90
2023/03/13 11:12:33;;;;;;;12.90;3.13;;;14.20;99.90;;;;;;4983124;28;20383;-90
2023/03/13 11:15:00;;;;;;;13.38;3.05;;;14.20;99.90;;;;;;5010430;28;20030;-90
2023/03/13 11:17:39;;;;;;;12.05;2.80;;;14.30;99.90;;;;;;4997171;28;20049;-90
2023/03/13 11:20:27;;;;;;;9.15;2.50;;;14.30;99.90;;;;;;4979325;28;20057;-90
2023/03/13 11:23:04;;;;;;;14.15;3.55;;;14.40;99.90;;;;;;4998097;28;20046;-89
2023/03/13 11:26:00;;;;;;;11.90;2.88;;;14.50;99.90;;;;;;4999802;28;20121;-90
2023/03/13 11:28:31;;;;;;;10.15;2.72;;;14.50;99.90;;;;;;5004511;28;20033;-90
2023/03/13 11:31:08;;;;;;;9.68;2.65;;;14.40;99.90;;;;;;4983778;28;20049;-90
2023/03/13 11:33:46;;;;;;;8.75;2.33;;;14.50;99.90;;;;;;4983199;28;20133;-89
2023/03/13 11:36:33;;;;;;;9.13;2.50;;;14.50;99.90;;;;;;4999765;28;20093;-90
2023/03/13 11:39:01;;;;;;;10.43;2.40;;;14.40;99.90;;;;;;5011378;28;20108;-90
2023/03/13 11:41:51;;;;;;;6.70;2.35;;;14.50;99.90;;;;;;4998278;28;20490;-90
2023/03/13 11:44:29;;;;;;;6.40;2.25;;;14.50;99.90;;;;;;4996883;28;21074;-90
2023/03/13 11:47:23;;;;;;;10.73;2.42;;;14.60;99.90;;;;;;5009084;28;20105;-90
2023/03/13 11:50:04;;;;;;;6.07;2.15;;;14.60;99.90;;;;;;4982810;28;20381;-90
2023/03/13 11:52:58;;;;;;;4.88;2.10;;;14.70;99.90;;;;;;4998924;28;20239;-90
2023/03/13 11:55:38;;;;;;;7.35;2.45;;;14.70;99.90;;;;;;4997335;28;20269;-90
2023/03/13 11:58:38;;;;;;;7.45;2.10;;;14.90;99.90;;;;;;4983914;28;20049;-89
2023/03/13 12:01:13;;;;;;;6.10;1.77;;;15.20;99.90;;;;;;4981213;28;20038;-90
2023/03/13 12:04:01;;;;;;;9.13;1.88;;;15.20;99.90;;;;;;4982169;28;20046;-90
2023/03/13 12:06:37;;;;;;;7.78;2.15;;;15.20;99.90;;;;;;4984869;28;20038;-90
2023/03/13 12:09:15;;;;;;;5.93;2.00;;;15.40;99.90;;;;;;4980705;28;20037;-90
2023/03/13 12:12:03;;;;;;;7.88;1.70;;;15.40;99.90;;;;;;4985938;28;20080;-90
2023/03/13 12:14:50;;;;;;;8.50;1.92;;;15.60;99.90;;;;;;4984713;28;20041;-90
2023/03/13 12:17:33;;;;;;;6.32;2.47;;;15.60;99.90;;;;;;5012727;28;20072;-90
2023/03/13 12:20:23;;;;;;;11.48;2.47;;;15.40;99.90;;;;;;4982458;28;20075;-90
2023/03/13 12:23:11;;;;;;;10.80;2.20;;;15.50;99.90;;;;;;4983336;28;20046;-90
2023/03/13 12:25:44;;;;;;;9.18;2.80;;;15.60;99.90;;;;;;4981915;28;20105;-90
2023/03/13 12:29:03;;;;;;;8.55;2.25;;;15.70;99.90;;;;;;4983038;28;20044;-90
2023/03/13 12:31:51;;;;;;;13.18;3.03;;;15.90;99.90;;;;;;4979610;28;20089;-89
2023/03/13 12:34:19;;;;;;;9.63;2.40;;;16.10;99.90;;;;;;4978992;28;20058;-90
2023/03/13 12:37:08;;;;;;;9.57;2.33;;;15.90;99.90;;;;;;4982840;28;20056;-89
2023/03/13 12:39:39;;;;;;;14.55;2.83;;;15.70;99.90;;;;;;4996088;28;20073;-90
2023/03/13 12:42:20;;;;;;;8.27;2.20;;;15.90;99.90;;;;;;4997474;28;20103;-90
2023/03/13 12:44:46;;;;;;;10.80;2.75;;;16.00;99.90;;;;;;5008310;28;20037;-90
2023/03/13 12:47:46;;;;;;;10.38;2.80;;;15.90;99.90;;;;;;4981577;28;20046;-90
2023/03/13 12:50:38;;;;;;;10.63;2.42;;;15.70;99.90;;;;;;5000594;28;20092;-89
2023/03/13 12:53:42;;;;;;;7.90;2.20;;;15.60;99.90;;;;;;4980519;28;20038;-90
2023/03/13 12:56:59;;;;;;;12.80;2.60;;;15.60;99.90;;;;;;4997114;28;20265;-90
2023/03/13 12:59:37;;;;;;;12.85;3.22;;;15.30;99.90;;;;;;4951363;28;20117;-90
2023/03/13 13:02:15;;;;;;;8.35;2.60;;;15.60;99.90;;;;;;4980930;28;20152;-90